sensor_id;sensor_type;location;lat;lon;timestamp;pressure;altitude;pressure_sealevel;temperature;humidity
57568;BME280;43403;51.948;5.922;2023-02-13T00:02:22;103724.59;;;8.20;100.00
57568;BME280;43403;51.948;5.922;2023-02-13T00:04:49;103722.00;;;8.20;100.00
57568;BME280;43403;51.948;5.922;2023-02-13T00:07:15;103726.34;;;8.19;100.00
57568;BME280;43403;51.948;5.922;2023-02-13T00:09:41;103716.88;;;8.17;100.00
57568;BME280;43403;51.948;5.922;2023-02-13T00:12:07;103715.19;;;8.16;100.00
57568;BME280;43403;51.948;5.922;2023-02-13T00:14:34;103714.31;;;8.15;100.00
57568;BME280;43403;51.948;5.922;2023-02-13T00:17:01;103708.19;;;8.16;100.00
57568;BME280;43403;51.948;5.922;2023-02-13T00:19:27;103711.69;;;8.15;100.00
57568;BME280;43403;51.948;5.922;2023-02-13T00:21:54;103703.00;;;8.15;100.00
57568;BME280;43403;51.948;5.922;2023-02-13T00:24:20;103705.75;;;8.11;100.00
57568;BME280;43403;51.948;5.922;2023-02-13T00:26:46;103702.22;;;8.12;100.00
57568;BME280;43403;51.948;5.922;2023-02-13T00:29:13;103706.69;;;8.09;100.00
57568;BME280;43403;51.948;5.922;2023-02-13T00:31:39;103698.22;;;8.04;100.00
57568;BME280;43403;51.948;5.922;2023-02-13T00:34:06;103700.75;;;8.05;100.00
57568;BME280;43403;51.948;5.922;2023-02-13T00:36:32;103698.22;;;8.04;100.00
57568;BME280;43403;51.948;5.922;2023-02-13T00:38:58;103688.59;;;8.04;100.00
57568;BME280;43403;51.948;5.922;2023-02-13T00:41:24;103694.72;;;8.03;100.00
57568;BME280;43403;51.948;5.922;2023-02-13T00:43:51;103692.09;;;8.03;100.00
57568;BME280;43403;51.948;5.922;2023-02-13T00:46:17;103693.81;;;8.04;100.00
57568;BME280;43403;51.948;5.922;2023-02-13T00:48:44;103698.22;;;8.04;100.00
57568;BME280;43403;51.948;5.922;2023-02-13T00:51:11;103701.63;;;8.06;100.00
57568;BME280;43403;51.948;5.922;2023-02-13T00:53:37;103699.00;;;8.06;100.00
57568;BME280;43403;51.948;5.922;2023-02-13T00:56:04;103707.69;;;8.06;100.00
57568;BME280;43403;51.948;5.922;2023-02-13T00:58:31;103698.25;;;8.02;100.00
57568;BME280;43403;51.948;5.922;2023-02-13T01:00:58;103696.53;;;8.01;100.00
57568;BME280;43403;51.948;5.922;2023-02-13T01:03:25;103695.69;;;8.01;100.00
57568;BME280;43403;51.948;5.922;2023-02-13T01:05:51;103703.53;;;8.01;100.00
57568;BME280;43403;51.948;5.922;2023-02-13T01:08:18;103697.53;;;7.99;100.00
57568;BME280;43403;51.948;5.922;2023-02-13T01:10:45;103694.06;;;7.98;100.00
57568;BME280;43403;51.948;5.922;2023-02-13T01:13:12;103699.34;;;7.97;100.00
57568;BME280;43403;51.948;5.922;2023-02-13T01:15:39;103702.81;;;7.97;100.00
57568;BME280;43403;51.948;5.922;2023-02-13T01:18:06;103695.81;;;7.98;100.00
57568;BME280;43403;51.948;5.922;2023-02-13T01:20:32;103695.75;;;7.99;100.00
57568;BME280;43403;51.948;5.922;2023-02-13T01:22:58;103700.13;;;7.99;100.00
57568;BME280;43403;51.948;5.922;2023-02-13T01:25:25;103695.75;;;7.99;100.00
57568;BME280;43403;51.948;5.922;2023-02-13T01:27:52;103699.34;;;7.97;100.00
57568;BME280;43403;51.948;5.922;2023-02-13T01:30:19;103694.91;;;7.99;100.00
57568;BME280;43403;51.948;5.922;2023-02-13T01:32:45;103687.00;;;8.00;100.00
57568;BME280;43403;51.948;5.922;2023-02-13T01:35:13;103690.53;;;7.99;100.00
57568;BME280;43403;51.948;5.922;2023-02-13T01:37:40;103696.69;;;7.98;100.00
57568;BME280;43403;51.948;5.922;2023-02-13T01:40:08;103687.06;;;7.99;100.00
57568;BME280;43403;51.948;5.922;2023-02-13T01:42:35;103689.88;;;7.94;100.00
57568;BME280;43403;51.948;5.922;2023-02-13T01:45:19;103692.41;;;7.96;100.00
57568;BME280;43403;51.948;5.922;2023-02-13T01:47:48;103686.38;;;7.93;100.00
57568;BME280;43403;51.948;5.922;2023-02-13T01:50:17;103687.34;;;7.91;100.00
57568;BME280;43403;51.948;5.922;2023-02-13T01:52:56;103674.28;;;7.91;100.00
57568;BME280;43403;51.948;5.922;2023-02-13T01:55:24;103673.41;;;7.92;100.00
57568;BME280;43403;51.948;5.922;2023-02-13T01:57:53;103677.69;;;7.93;100.00
57568;BME280;43403;51.948;5.922;2023-02-13T02:00:22;103673.41;;;7.92;100.00
57568;BME280;43403;51.948;5.922;2023-02-13T02:02:54;103675.03;;;7.95;100.00
57568;BME280;43403;51.948;5.922;2023-02-13T02:05:23;103683.59;;;7.98;100.00
57568;BME280;43403;51.948;5.922;2023-02-13T02:07:52;103675.72;;;8.00;100.00
57568;BME280;43403;51.948;5.922;2023-02-13T02:10:19;103682.63;;;8.01;100.00
57568;BME280;43403;51.948;5.922;2023-02-13T02:15:15;103681.78;;;8.00;100.00
57568;BME280;43403;51.948;5.922;2023-02-13T02:17:42;103671.28;;;8.02;100.00
57568;BME280;43403;51.948;5.922;2023-02-13T02:31:03;103671.19;;;8.03;100.00
57568;BME280;43403;51.948;5.922;2023-02-13T02:44:44;103663.25;;;8.06;100.00
57568;BME280;43403;51.948;5.922;2023-02-13T02:47:24;103663.25;;;8.06;100.00
57568;BME280;43403;51.948;5.922;2023-02-13T02:52:45;103666.75;;;8.05;100.00
57568;BME280;43403;51.948;5.922;2023-02-13T02:55:35;103668.47;;;8.06;100.00
57568;BME280;43403;51.948;5.922;2023-02-13T03:01:18;103670.25;;;8.06;100.00
57568;BME280;43403;51.948;5.922;2023-02-13T03:04:05;103671.13;;;8.05;100.00
57568;BME280;43403;51.948;5.922;2023-02-13T03:06:57;103659.78;;;8.06;100.00
57568;BME280;43403;51.948;5.922;2023-02-13T03:09:28;103658.84;;;8.07;100.00
57568;BME280;43403;51.948;5.922;2023-02-13T03:12:16;103661.53;;;8.05;100.00
57568;BME280;43403;51.948;5.922;2023-02-13T03:15:03;103658.91;;;8.05;100.00
57568;BME280;43403;51.948;5.922;2023-02-13T03:17:30;103656.38;;;8.04;100.00
57568;BME280;43403;51.948;5.922;2023-02-13T03:20:27;103660.81;;;8.02;100.00
57568;BME280;43403;51.948;5.922;2023-02-13T03:23:39;103657.28;;;8.03;100.00
57568;BME280;43403;51.948;5.922;2023-02-13T03:28:41;103659.78;;;8.06;100.00
57568;BME280;43403;51.948;5.922;2023-02-13T03:31:35;103663.25;;;8.06;100.00
57568;BME280;43403;51.948;5.922;2023-02-13T03:34:05;103664.94;;;8.07;100.00
57568;BME280;43403;51.948;5.922;2023-02-13T03:36:43;103665.81;;;8.08;100.00
57568;BME280;43403;51.948;5.922;2023-02-13T03:39:41;103668.41;;;8.08;100.00
57568;BME280;43403;51.948;5.922;2023-02-13T03:42:11;103666.69;;;8.07;100.00
57568;BME280;43403;51.948;5.922;2023-02-13T03:44:46;103665.84;;;8.06;100.00
57568;BME280;43403;51.948;5.922;2023-02-13T03:47:35;103670.25;;;8.06;100.00
57568;BME280;43403;51.948;5.922;2023-02-13T03:50:01;103668.53;;;8.05;100.00
57568;BME280;43403;51.948;5.922;2023-02-13T03:52:38;103666.69;;;8.07;100.00
57568;BME280;43403;51.948;5.922;2023-02-13T03:55:08;103667.53;;;8.07;100.00
57568;BME280;43403;51.948;5.922;2023-02-13T03:58:01;103665.81;;;8.08;100.00
57568;BME280;43403;51.948;5.922;2023-02-13T04:00:49;103669.31;;;8.07;100.00
57568;BME280;43403;51.948;5.922;2023-02-13T04:03:26;103666.69;;;8.07;100.00
57568;BME280;43403;51.948;5.922;2023-02-13T04:05:59;103671.13;;;8.05;100.00
57568;BME280;43403;51.948;5.922;2023-02-13T04:08:27;103671.13;;;8.05;100.00
57568;BME280;43403;51.948;5.922;2023-02-13T04:10:58;103671.09;;;8.06;100.00
57568;BME280;43403;51.948;5.922;2023-02-13T04:15:55;103675.56;;;8.03;100.00
57568;BME280;43403;51.948;5.922;2023-02-13T04:18:30;103672.06;;;8.04;100.00
57568;BME280;43403;51.948;5.922;2023-02-13T04:21:01;103667.78;;;8.01;100.00
57568;BME280;43403;51.948;5.922;2023-02-13T04:23:28;103670.41;;;8.01;100.00
57568;BME280;43403;51.948;5.922;2023-02-13T04:25:55;103672.22;;;7.99;100.00
57568;BME280;43403;51.948;5.922;2023-02-13T04:28:22;103675.72;;;8.00;100.00
57568;BME280;43403;51.948;5.922;2023-02-13T04:30:48;103667.78;;;8.01;100.00
57568;BME280;43403;51.948;5.922;2023-02-13T04:33:15;103672.13;;;8.02;100.00
57568;BME280;43403;51.948;5.922;2023-02-13T04:35:42;103663.34;;;8.03;100.00
57568;BME280;43403;51.948;5.922;2023-02-13T04:38:08;103665.97;;;8.03;100.00
57568;BME280;43403;51.948;5.922;2023-02-13T04:40:34;103671.19;;;8.03;100.00
57568;BME280;43403;51.948;5.922;2023-02-13T04:43:01;103669.56;;;8.01;100.00
57568;BME280;43403;51.948;5.922;2023-02-13T04:45:27;103674.69;;;8.04;100.00
57568;BME280;43403;51.948;5.922;2023-02-13T04:47:54;103675.56;;;8.03;100.00
57568;BME280;43403;51.948;5.922;2023-02-13T04:50:21;103669.44;;;8.04;100.00
57568;BME280;43403;51.948;5.922;2023-02-13T04:52:49;103666.09;;;8.00;100.00
57568;BME280;43403;51.948;5.922;2023-02-13T04:55:17;103674.72;;;8.02;100.00
57568;BME280;43403;51.948;5.922;2023-02-13T04:57:44;103669.56;;;8.01;100.00
57568;BME280;43403;51.948;5.922;2023-02-13T05:00:10;103666.09;;;8.00;100.00
57568;BME280;43403;51.948;5.922;2023-02-13T05:02:37;103667.00;;;7.99;100.00
57568;BME280;43403;51.948;5.922;2023-02-13T05:05:04;103664.38;;;7.99;100.00
57568;BME280;43403;51.948;5.922;2023-02-13T05:07:31;103656.53;;;7.99;100.00
57568;BME280;43403;51.948;5.922;2023-02-13T05:09:57;103656.50;;;8.01;100.00
57568;BME280;43403;51.948;5.922;2023-02-13T05:12:23;103654.72;;;8.01;100.00
57568;BME280;43403;51.948;5.922;2023-02-13T05:14:50;103644.25;;;8.01;100.00
57568;BME280;43403;51.948;5.922;2023-02-13T05:17:16;103654.72;;;8.01;100.00
57568;BME280;43403;51.948;5.922;2023-02-13T05:19:43;103648.59;;;8.02;100.00
57568;BME280;43403;51.948;5.922;2023-02-13T05:22:09;103647.84;;;7.99;100.00
57568;BME280;43403;51.948;5.922;2023-02-13T05:24:54;103644.41;;;7.98;100.00
57568;BME280;43403;51.948;5.922;2023-02-13T05:27:20;103644.44;;;7.97;100.00
57568;BME280;43403;51.948;5.922;2023-02-13T05:29:47;103636.66;;;7.95;100.00
57568;BME280;43403;51.948;5.922;2023-02-13T05:32:13;103641.88;;;7.95;100.00
57568;BME280;43403;51.948;5.922;2023-02-13T05:34:39;103638.50;;;7.93;100.00
57568;BME280;43403;51.948;5.922;2023-02-13T05:37:06;103636.72;;;7.93;100.00
57568;BME280;43403;51.948;5.922;2023-02-13T05:39:32;103631.63;;;7.90;100.00
57568;BME280;43403;51.948;5.922;2023-02-13T05:41:58;103632.53;;;7.89;100.00
57568;BME280;43403;51.948;5.922;2023-02-13T05:44:25;103643.84;;;7.90;100.00
57568;BME280;43403;51.948;5.922;2023-02-13T05:46:51;103635.13;;;7.89;100.00
57568;BME280;43403;51.948;5.922;2023-02-13T05:49:18;103634.25;;;7.90;100.00
57568;BME280;43403;51.948;5.922;2023-02-13T05:51:44;103634.28;;;7.89;100.00
57568;BME280;43403;51.948;5.922;2023-02-13T05:54:12;103637.75;;;7.89;100.00
57568;BME280;43403;51.948;5.922;2023-02-13T05:56:38;103643.16;;;7.85;100.00
57568;BME280;43403;51.948;5.922;2023-02-13T05:59:04;103640.50;;;7.86;100.00
57568;BME280;43403;51.948;5.922;2023-02-13T06:01:31;103638.69;;;7.88;100.00
57568;BME280;43403;51.948;5.922;2023-02-13T06:03:57;103638.69;;;7.88;100.00
57568;BME280;43403;51.948;5.922;2023-02-13T06:06:26;103641.28;;;7.88;100.00
57568;BME280;43403;51.948;5.922;2023-02-13T06:08:52;103641.09;;;7.93;100.00
57568;BME280;43403;51.948;5.922;2023-02-13T06:11:19;103640.25;;;7.92;100.00
57568;BME280;43403;51.948;5.922;2023-02-13T06:13:45;103641.09;;;7.93;100.00
57568;BME280;43403;51.948;5.922;2023-02-13T06:16:12;103640.25;;;7.92;100.00
57568;BME280;43403;51.948;5.922;2023-02-13T06:18:38;103635.03;;;7.92;100.00
57568;BME280;43403;51.948;5.922;2023-02-13T06:21:05;103635.94;;;7.91;100.00
57568;BME280;43403;51.948;5.922;2023-02-13T06:23:32;103634.97;;;7.94;100.00
57568;BME280;43403;51.948;5.922;2023-02-13T06:26:02;103632.41;;;7.92;100.00
57568;BME280;43403;51.948;5.922;2023-02-13T06:28:29;103635.03;;;7.92;100.00
57568;BME280;43403;51.948;5.922;2023-02-13T06:30:55;103641.88;;;7.95;100.00
57568;BME280;43403;51.948;5.922;2023-02-13T06:33:22;103640.00;;;7.99;100.00
57568;BME280;43403;51.948;5.922;2023-02-13T06:35:48;103635.63;;;7.99;100.00
57568;BME280;43403;51.948;5.922;2023-02-13T06:38:15;103635.63;;;7.99;100.00
57568;BME280;43403;51.948;5.922;2023-02-13T06:40:47;103634.72;;;8.00;100.00
57568;BME280;43403;51.948;5.922;2023-02-13T06:43:13;103640.84;;;7.99;100.00
57568;BME280;43403;51.948;5.922;2023-02-13T06:45:40;103641.72;;;8.00;100.00
57568;BME280;43403;51.948;5.922;2023-02-13T06:48:07;103642.56;;;8.00;100.00
57568;BME280;43403;51.948;5.922;2023-02-13T06:50:33;103645.06;;;8.03;100.00
57568;BME280;43403;51.948;5.922;2023-02-13T06:53:00;103648.44;;;8.05;100.00
57568;BME280;43403;51.948;5.922;2023-02-13T06:55:26;103647.63;;;8.05;100.00
57568;BME280;43403;51.948;5.922;2023-02-13T06:57:53;103651.00;;;8.07;100.00
57568;BME280;43403;51.948;5.922;2023-02-13T07:00:19;103657.09;;;8.07;100.00
57568;BME280;43403;51.948;5.922;2023-02-13T07:02:46;103647.50;;;8.08;100.00
57568;BME280;43403;51.948;5.922;2023-02-13T07:05:12;103655.25;;;8.09;100.00
57568;BME280;43403;51.948;5.922;2023-02-13T07:07:39;103664.88;;;8.09;100.00
57568;BME280;43403;51.948;5.922;2023-02-13T07:10:07;103663.94;;;8.11;100.00
57568;BME280;43403;51.948;5.922;2023-02-13T07:12:34;103660.38;;;8.12;100.00
57568;BME280;43403;51.948;5.922;2023-02-13T07:15:04;103669.16;;;8.11;100.00
57568;BME280;43403;51.948;5.922;2023-02-13T07:17:31;103669.00;;;8.15;100.00
57568;BME280;43403;51.948;5.922;2023-02-13T07:19:59;103666.44;;;8.13;100.00
57568;BME280;43403;51.948;5.922;2023-02-13T07:22:25;103672.47;;;8.15;100.00
57568;BME280;43403;51.948;5.922;2023-02-13T07:24:51;103667.25;;;8.15;100.00
57568;BME280;43403;51.948;5.922;2023-02-13T07:27:17;103670.72;;;8.16;100.00
57568;BME280;43403;51.948;5.922;2023-02-13T07:29:47;103674.19;;;8.16;100.00
57568;BME280;43403;51.948;5.922;2023-02-13T07:32:14;103667.97;;;8.19;100.00
57568;BME280;43403;51.948;5.922;2023-02-13T07:34:40;103668.91;;;8.18;100.00
57568;BME280;43403;51.948;5.922;2023-02-13T07:37:26;103681.84;;;8.21;100.00
57568;BME280;43403;51.948;5.922;2023-02-13T07:39:52;103674.00;;;8.21;100.00
57568;BME280;43403;51.948;5.922;2023-02-13T07:42:18;103686.22;;;8.20;100.00
57568;BME280;43403;51.948;5.922;2023-02-13T07:44:45;103682.72;;;8.21;100.00
57568;BME280;43403;51.948;5.922;2023-02-13T07:47:11;103687.00;;;8.22;100.00
57568;BME280;43403;51.948;5.922;2023-02-13T07:49:38;103690.31;;;8.27;100.00
57568;BME280;43403;51.948;5.922;2023-02-13T07:52:04;103685.19;;;8.24;100.00
57568;BME280;43403;51.948;5.922;2023-02-13T07:54:31;103689.53;;;8.25;100.00
57568;BME280;43403;51.948;5.922;2023-02-13T07:56:57;103690.31;;;8.27;100.00
57568;BME280;43403;51.948;5.922;2023-02-13T07:59:24;103687.59;;;8.29;100.00
57568;BME280;43403;51.948;5.922;2023-02-13T08:01:50;103691.00;;;8.31;100.00
57568;BME280;43403;51.948;5.922;2023-02-13T08:04:17;103694.63;;;8.28;100.00
57568;BME280;43403;51.948;5.922;2023-02-13T08:06:43;103693.53;;;8.34;100.00
57568;BME280;43403;51.948;5.922;2023-02-13T08:09:13;103690.78;;;8.37;100.00
57568;BME280;43403;51.948;5.922;2023-02-13T08:12:04;103695.88;;;8.42;100.00
57568;BME280;43403;51.948;5.922;2023-02-13T08:14:31;103701.88;;;8.44;100.00
57568;BME280;43403;51.948;5.922;2023-02-13T08:16:57;103683.56;;;8.44;100.00
57568;BME280;43403;51.948;5.922;2023-02-13T08:19:24;103693.19;;;8.43;100.00
57568;BME280;43403;51.948;5.922;2023-02-13T08:21:50;103686.19;;;8.44;100.00
57568;BME280;43403;51.948;5.922;2023-02-13T08:24:16;103685.19;;;8.46;100.00
57568;BME280;43403;51.948;5.922;2023-02-13T08:26:43;103689.72;;;8.43;100.00
57568;BME280;43403;51.948;5.922;2023-02-13T08:29:09;103691.50;;;8.41;100.00
57568;BME280;43403;51.948;5.922;2023-02-13T08:31:36;103692.44;;;8.40;100.00
57568;BME280;43403;51.948;5.922;2023-02-13T08:34:03;103691.50;;;8.41;100.00
57568;BME280;43403;51.948;5.922;2023-02-13T08:36:29;103700.34;;;8.38;100.00
57568;BME280;43403;51.948;5.922;2023-02-13T08:38:55;103701.09;;;8.42;100.00
57568;BME280;43403;51.948;5.922;2023-02-13T08:41:22;103699.44;;;8.39;100.00
57568;BME280;43403;51.948;5.922;2023-02-13T08:43:49;103701.94;;;8.42;100.00
57568;BME280;43403;51.948;5.922;2023-02-13T08:46:16;103704.56;;;8.41;100.00
57568;BME280;43403;51.948;5.922;2023-02-13T08:48:42;103701.97;;;8.41;100.00
57568;BME280;43403;51.948;5.922;2023-02-13T08:51:09;103703.72;;;8.42;100.00
57568;BME280;43403;51.948;5.922;2023-02-13T08:53:37;103708.03;;;8.43;100.00
57568;BME280;43403;51.948;5.922;2023-02-13T08:56:04;103708.09;;;8.41;100.00
57568;BME280;43403;51.948;5.922;2023-02-13T08:58:30;103709.63;;;8.47;100.00
57568;BME280;43403;51.948;5.922;2023-02-13T09:00:57;103709.47;;;8.50;100.00
57568;BME280;43403;51.948;5.922;2023-02-13T09:03:23;103708.59;;;8.51;100.00
57568;BME280;43403;51.948;5.922;2023-02-13T09:05:50;103710.28;;;8.52;100.00
57568;BME280;43403;51.948;5.922;2023-02-13T09:08:16;103709.97;;;8.60;100.00
57568;BME280;43403;51.948;5.922;2023-02-13T09:10:44;103708.03;;;8.65;100.00
57568;BME280;43403;51.948;5.922;2023-02-13T09:13:10;103705.16;;;8.71;100.00
57568;BME280;43403;51.948;5.922;2023-02-13T09:15:37;103699.66;;;8.77;100.00
57568;BME280;43403;51.948;5.922;2023-02-13T09:18:05;103710.19;;;8.76;100.00
57568;BME280;43403;51.948;5.922;2023-02-13T09:20:32;103704.03;;;8.77;100.00
57568;BME280;43403;51.948;5.922;2023-02-13T09:23:01;103704.63;;;8.83;100.00
57568;BME280;43403;51.948;5.922;2023-02-13T09:25:27;103703.56;;;8.87;100.00
57568;BME280;43403;51.948;5.922;2023-02-13T09:27:53;103697.50;;;8.87;100.00
57568;BME280;43403;51.948;5.922;2023-02-13T09:30:20;103701.63;;;8.93;100.00
57568;BME280;43403;51.948;5.922;2023-02-13T09:32:50;103696.13;;;8.99;100.00
57568;BME280;43403;51.948;5.922;2023-02-13T09:35:17;103708.03;;;9.06;100.00
57568;BME280;43403;51.948;5.922;2023-02-13T09:37:43;103709.72;;;9.07;100.00
57568;BME280;43403;51.948;5.922;2023-02-13T09:40:18;103710.34;;;9.14;100.00
57568;BME280;43403;51.948;5.922;2023-02-13T09:42:46;103711.75;;;9.21;100.00
57568;BME280;43403;51.948;5.922;2023-02-13T09:45:13;103720.34;;;9.24;100.00
57568;BME280;43403;51.948;5.922;2023-02-13T09:47:40;103710.59;;;9.28;100.00
57568;BME280;43403;51.948;5.922;2023-02-13T09:50:23;103709.47;;;9.34;100.00
57568;BME280;43403;51.948;5.922;2023-02-13T09:52:50;103706.22;;;9.47;100.00
57568;BME280;43403;51.948;5.922;2023-02-13T09:55:20;103711.03;;;9.38;100.00
57568;BME280;43403;51.948;5.922;2023-02-13T09:57:50;103707.34;;;9.42;100.00
57568;BME280;43403;51.948;5.922;2023-02-13T10:00:20;103716.38;;;9.35;100.00
57568;BME280;43403;51.948;5.922;2023-02-13T10:02:51;103712.66;;;9.40;100.00
57568;BME280;43403;51.948;5.922;2023-02-13T10:10:58;103702.88;;;9.44;100.00
57568;BME280;43403;51.948;5.922;2023-02-13T10:13:35;103700.84;;;9.50;100.00
57568;BME280;43403;51.948;5.922;2023-02-13T10:18:40;103693.41;;;9.60;100.00
57568;BME280;43403;51.948;5.922;2023-02-13T10:21:08;103704.53;;;9.65;100.00
57568;BME280;43403;51.948;5.922;2023-02-13T10:23:38;103702.00;;;9.64;100.00
57568;BME280;43403;51.948;5.922;2023-02-13T10:26:06;103700.16;;;9.66;100.00
57568;BME280;43403;51.948;5.922;2023-02-13T10:28:43;103698.97;;;9.73;100.00
57568;BME280;43403;51.948;5.922;2023-02-13T10:31:16;103697.75;;;9.80;100.00
57568;BME280;43403;51.948;5.922;2023-02-13T10:33:51;103701.59;;;9.92;100.00
57568;BME280;43403;51.948;5.922;2023-02-13T10:36:20;103708.38;;;9.96;100.00
57568;BME280;43403;51.948;5.922;2023-02-13T10:39:00;103709.34;;;9.94;100.00
57568;BME280;43403;51.948;5.922;2023-02-13T10:41:43;103699.22;;;10.05;100.00
57568;BME280;43403;51.948;5.922;2023-02-13T10:47:17;103709.53;;;10.27;100.00
57568;BME280;43403;51.948;5.922;2023-02-13T10:50:10;103701.19;;;10.38;100.00
57568;BME280;43403;51.948;5.922;2023-02-13T11:00:38;103682.41;;;10.64;100.00
57568;BME280;43403;51.948;5.922;2023-02-13T11:03:16;103683.25;;;10.82;100.00
57568;BME280;43403;51.948;5.922;2023-02-13T11:05:42;103680.75;;;10.97;100.00
57568;BME280;43403;51.948;5.922;2023-02-13T11:08:13;103674.34;;;11.02;100.00
57568;BME280;43403;51.948;5.922;2023-02-13T11:10:41;103680.34;;;11.04;100.00
57568;BME280;43403;51.948;5.922;2023-02-13T11:13:18;103674.78;;;11.11;100.00
57568;BME280;43403;51.948;5.922;2023-02-13T11:15:58;103669.19;;;11.17;100.00
57568;BME280;43403;51.948;5.922;2023-02-13T11:18:26;103668.66;;;11.27;100.00
57568;BME280;43403;51.948;5.922;2023-02-13T11:21:01;103663.22;;;11.31;100.00
57568;BME280;43403;51.948;5.922;2023-02-13T11:25:59;103655.97;;;11.52;100.00
57568;BME280;43403;51.948;5.922;2023-02-13T11:28:27;103646.28;;;11.68;100.00
57568;BME280;43403;51.948;5.922;2023-02-13T11:31:07;103642.72;;;11.85;100.00
57568;BME280;43403;51.948;5.922;2023-02-13T11:33:35;103646.50;;;11.97;100.00
57568;BME280;43403;51.948;5.922;2023-02-13T11:36:05;103650.28;;;12.07;99.44
57568;BME280;43403;51.948;5.922;2023-02-13T11:38:32;103642.84;;;12.15;97.39
57568;BME280;43403;51.948;5.922;2023-02-13T11:41:03;103636.53;;;12.18;95.19
57568;BME280;43403;51.948;5.922;2023-02-13T11:43:34;103632.44;;;12.28;95.94
57568;BME280;43403;51.948;5.922;2023-02-13T11:46:18;103639.06;;;12.50;98.59
57568;BME280;43403;51.948;5.922;2023-02-13T11:49:02;103649.06;;;12.59;93.72
57568;BME280;43403;51.948;5.922;2023-02-13T11:51:40;103635.34;;;12.68;95.43
57568;BME280;43403;51.948;5.922;2023-02-13T11:54:27;103638.16;;;12.65;92.56
57568;BME280;43403;51.948;5.922;2023-02-13T11:56:55;103635.94;;;12.73;91.47
57568;BME280;43403;51.948;5.922;2023-02-13T11:59:39;103632.84;;;12.81;90.21
57568;BME280;43403;51.948;5.922;2023-02-13T12:02:13;103646.00;;;12.95;92.17
57568;BME280;43403;51.948;5.922;2023-02-13T12:04:40;103635.59;;;12.94;87.07
57568;BME280;43403;51.948;5.922;2023-02-13T12:07:12;103632.75;;;13.11;91.54
57568;BME280;43403;51.948;5.922;2023-02-13T12:09:39;103624.38;;;13.19;90.65
57568;BME280;43403;51.948;5.922;2023-02-13T12:12:06;103622.78;;;13.16;83.98
57568;BME280;43403;51.948;5.922;2023-02-13T12:14:39;103622.97;;;13.28;88.04
57568;BME280;43403;51.948;5.922;2023-02-13T12:17:11;103618.75;;;13.39;85.39
57568;BME280;43403;51.948;5.922;2023-02-13T12:19:55;103617.97;;;13.52;85.93
57568;BME280;43403;51.948;5.922;2023-02-13T12:22:29;103616.81;;;13.56;83.90
57568;BME280;43403;51.948;5.922;2023-02-13T12:32:56;103614.00;;;13.86;85.49
57568;BME280;43403;51.948;5.922;2023-02-13T12:35:31;103604.53;;;13.96;82.33
57568;BME280;43403;51.948;5.922;2023-02-13T12:43:45;103598.19;;;13.99;79.35
57568;BME280;43403;51.948;5.922;2023-02-13T12:48:51;103598.53;;;14.07;77.68
57568;BME280;43403;51.948;5.922;2023-02-13T12:54:15;103587.13;;;13.94;77.94
57568;BME280;43403;51.948;5.922;2023-02-13T12:56:56;103578.31;;;14.20;84.48
57568;BME280;43403;51.948;5.922;2023-02-13T12:59:29;103577.66;;;14.17;78.52
57568;BME280;43403;51.948;5.922;2023-02-13T13:09:48;103561.41;;;14.10;77.07
57568;BME280;43403;51.948;5.922;2023-02-13T13:15:08;103571.22;;;14.21;76.74
57568;BME280;43403;51.948;5.922;2023-02-13T13:28:25;103555.22;;;14.75;77.91
57568;BME280;43403;51.948;5.922;2023-02-13T13:30:43;103550.97;;;14.86;75.32
57568;BME280;43403;51.948;5.922;2023-02-13T13:33:17;103552.97;;;14.95;76.87
57568;BME280;43403;51.948;5.922;2023-02-13T13:35:52;103547.38;;;14.99;74.63
57568;BME280;43403;51.948;5.922;2023-02-13T13:46:02;103541.84;;;15.02;74.52
57568;BME280;43403;51.948;5.922;2023-02-13T13:51:16;103540.13;;;15.14;75.75
57568;BME280;43403;51.948;5.922;2023-02-13T13:57:02;103530.22;;;15.05;76.88
57568;BME280;43403;51.948;5.922;2023-02-13T14:02:25;103520.09;;;14.99;71.05
57568;BME280;43403;51.948;5.922;2023-02-13T14:07:34;103508.94;;;14.70;71.81
57568;BME280;43403;51.948;5.922;2023-02-13T14:10:01;103513.91;;;14.49;76.25
57568;BME280;43403;51.948;5.922;2023-02-13T14:14:54;103508.53;;;14.63;75.89
57568;BME280;43403;51.948;5.922;2023-02-13T14:22:51;103508.13;;;14.56;76.46
57568;BME280;43403;51.948;5.922;2023-02-13T14:25:25;103506.59;;;14.52;77.26
57568;BME280;43403;51.948;5.922;2023-02-13T14:27:56;103505.88;;;14.37;77.01
57568;BME280;43403;51.948;5.922;2023-02-13T14:30:27;103514.44;;;14.41;77.94
57568;BME280;43403;51.948;5.922;2023-02-13T14:32:54;103513.91;;;14.36;78.22
57568;BME280;43403;51.948;5.922;2023-02-13T14:35:31;103511.59;;;14.31;79.60
57568;BME280;43403;51.948;5.922;2023-02-13T14:38:02;103512.53;;;14.30;78.91
57568;BME280;43403;51.948;5.922;2023-02-13T14:45:50;103507.63;;;14.11;79.80
57568;BME280;43403;51.948;5.922;2023-02-13T14:48:18;103498.38;;;14.06;80.69
57568;BME280;43403;51.948;5.922;2023-02-13T14:50:48;103501.72;;;13.95;80.06
57568;BME280;43403;51.948;5.922;2023-02-13T14:53:17;103498.63;;;13.75;78.87
57568;BME280;43403;51.948;5.922;2023-02-13T14:55:47;103497.56;;;13.78;83.36
57568;BME280;43403;51.948;5.922;2023-02-13T14:58:27;103490.94;;;13.72;81.19
57568;BME280;43403;51.948;5.922;2023-02-13T15:01:10;103494.31;;;13.74;85.41
57568;BME280;43403;51.948;5.922;2023-02-13T15:03:48;103493.09;;;13.65;82.04
57568;BME280;43403;51.948;5.922;2023-02-13T15:06:23;103488.78;;;13.64;81.70
57568;BME280;43403;51.948;5.922;2023-02-13T15:08:51;103489.94;;;13.60;82.81
57568;BME280;43403;51.948;5.922;2023-02-13T15:11:38;103490.38;;;13.67;86.94
57568;BME280;43403;51.948;5.922;2023-02-13T15:14:41;103486.56;;;13.58;82.68
57568;BME280;43403;51.948;5.922;2023-02-13T15:17:14;103484.63;;;13.48;83.96